sensor_id;sensor_type;location;lat;lon;timestamp;temperature;humidity
61591;DHT22;57639;52.410;-1.966;2022-10-16T00:01:58;17.50;57.90
61591;DHT22;57639;52.410;-1.966;2022-10-16T00:05:06;17.50;57.90
61591;DHT22;57639;52.410;-1.966;2022-10-16T00:08:13;17.50;57.80
61591;DHT22;57639;52.410;-1.966;2022-10-16T00:11:23;17.50;58.00
61591;DHT22;57639;52.410;-1.966;2022-10-16T00:14:31;17.50;57.90
61591;DHT22;57639;52.410;-1.966;2022-10-16T00:17:41;17.60;57.90
61591;DHT22;57639;52.410;-1.966;2022-10-16T00:20:48;17.50;57.90
61591;DHT22;57639;52.410;-1.966;2022-10-16T00:23:57;17.60;57.90
61591;DHT22;57639;52.410;-1.966;2022-10-16T00:27:06;17.50;57.90
61591;DHT22;57639;52.410;-1.966;2022-10-16T00:30:13;17.50;57.90
61591;DHT22;57639;52.410;-1.966;2022-10-16T00:33:24;17.50;57.90
61591;DHT22;57639;52.410;-1.966;2022-10-16T00:36:31;17.50;57.90
61591;DHT22;57639;52.410;-1.966;2022-10-16T00:39:38;17.50;57.80
61591;DHT22;57639;52.410;-1.966;2022-10-16T00:42:46;17.50;57.80
61591;DHT22;57639;52.410;-1.966;2022-10-16T00:45:53;17.60;57.80
61591;DHT22;57639;52.410;-1.966;2022-10-16T00:49:05;17.60;57.70
61591;DHT22;57639;52.410;-1.966;2022-10-16T00:52:14;17.50;57.70
61591;DHT22;57639;52.410;-1.966;2022-10-16T00:55:22;17.50;57.70
61591;DHT22;57639;52.410;-1.966;2022-10-16T00:58:30;17.60;57.80
61591;DHT22;57639;52.410;-1.966;2022-10-16T01:01:37;17.50;57.80
61591;DHT22;57639;52.410;-1.966;2022-10-16T01:04:50;17.50;57.70
61591;DHT22;57639;52.410;-1.966;2022-10-16T01:08:03;17.50;57.70
61591;DHT22;57639;52.410;-1.966;2022-10-16T01:11:17;17.50;57.70
61591;DHT22;57639;52.410;-1.966;2022-10-16T01:14:36;17.40;57.80
61591;DHT22;57639;52.410;-1.966;2022-10-16T01:17:51;17.40;57.80
61591;DHT22;57639;52.410;-1.966;2022-10-16T01:21:05;17.40;57.90
61591;DHT22;57639;52.410;-1.966;2022-10-16T01:24:18;17.40;57.90
61591;DHT22;57639;52.410;-1.966;2022-10-16T01:27:31;17.40;57.90
61591;DHT22;57639;52.410;-1.966;2022-10-16T01:30:40;17.40;57.90
61591;DHT22;57639;52.410;-1.966;2022-10-16T01:33:55;17.40;57.90
61591;DHT22;57639;52.410;-1.966;2022-10-16T01:37:07;17.40;57.90
61591;DHT22;57639;52.410;-1.966;2022-10-16T01:40:17;17.30;57.90
61591;DHT22;57639;52.410;-1.966;2022-10-16T01:43:34;17.30;58.00
61591;DHT22;57639;52.410;-1.966;2022-10-16T01:46:46;17.30;57.70
61591;DHT22;57639;52.410;-1.966;2022-10-16T01:49:55;17.30;58.00
61591;DHT22;57639;52.410;-1.966;2022-10-16T01:53:05;17.30;58.10
61591;DHT22;57639;52.410;-1.966;2022-10-16T01:56:15;17.30;58.10
61591;DHT22;57639;52.410;-1.966;2022-10-16T01:59:29;17.30;57.90
61591;DHT22;57639;52.410;-1.966;2022-10-16T02:02:38;17.30;57.90
61591;DHT22;57639;52.410;-1.966;2022-10-16T02:05:50;17.30;57.90
61591;DHT22;57639;52.410;-1.966;2022-10-16T02:08:59;17.30;57.80
61591;DHT22;57639;52.410;-1.966;2022-10-16T02:12:10;17.30;57.90
61591;DHT22;57639;52.410;-1.966;2022-10-16T02:15:21;17.20;58.00
61591;DHT22;57639;52.410;-1.966;2022-10-16T02:18:29;17.30;58.20
61591;DHT22;57639;52.410;-1.966;2022-10-16T02:21:41;17.30;58.20
61591;DHT22;57639;52.410;-1.966;2022-10-16T02:24:53;17.30;58.10
61591;DHT22;57639;52.410;-1.966;2022-10-16T02:28:06;17.30;58.20
61591;DHT22;57639;52.410;-1.966;2022-10-16T02:31:23;17.30;58.20
61591;DHT22;57639;52.410;-1.966;2022-10-16T02:34:33;17.20;58.30
61591;DHT22;57639;52.410;-1.966;2022-10-16T02:37:41;17.20;58.30
61591;DHT22;57639;52.410;-1.966;2022-10-16T02:40:49;17.20;58.40
61591;DHT22;57639;52.410;-1.966;2022-10-16T02:43:57;17.20;58.50
61591;DHT22;57639;52.410;-1.966;2022-10-16T02:47:07;17.20;58.40
61591;DHT22;57639;52.410;-1.966;2022-10-16T02:50:19;17.20;58.40
61591;DHT22;57639;52.410;-1.966;2022-10-16T02:53:29;17.20;58.50
61591;DHT22;57639;52.410;-1.966;2022-10-16T02:56:36;17.20;58.50
61591;DHT22;57639;52.410;-1.966;2022-10-16T02:59:44;17.20;58.70
61591;DHT22;57639;52.410;-1.966;2022-10-16T03:02:54;17.20;58.60
61591;DHT22;57639;52.410;-1.966;2022-10-16T03:06:01;17.20;58.60
61591;DHT22;57639;52.410;-1.966;2022-10-16T03:09:08;17.20;58.70
61591;DHT22;57639;52.410;-1.966;2022-10-16T03:12:16;17.20;58.80
61591;DHT22;57639;52.410;-1.966;2022-10-16T03:15:23;17.20;58.60
61591;DHT22;57639;52.410;-1.966;2022-10-16T03:18:35;17.20;58.80
61591;DHT22;57639;52.410;-1.966;2022-10-16T03:21:42;17.10;58.90
61591;DHT22;57639;52.410;-1.966;2022-10-16T03:24:49;17.10;58.90
61591;DHT22;57639;52.410;-1.966;2022-10-16T03:27:57;17.10;58.90
61591;DHT22;57639;52.410;-1.966;2022-10-16T03:31:04;17.10;59.00
61591;DHT22;57639;52.410;-1.966;2022-10-16T03:34:15;17.10;59.00
61591;DHT22;57639;52.410;-1.966;2022-10-16T03:37:22;17.10;59.00
61591;DHT22;57639;52.410;-1.966;2022-10-16T03:40:30;17.10;58.90
61591;DHT22;57639;52.410;-1.966;2022-10-16T03:43:38;17.10;59.10
61591;DHT22;57639;52.410;-1.966;2022-10-16T03:46:46;17.00;59.10
61591;DHT22;57639;52.410;-1.966;2022-10-16T03:49:56;17.10;59.10
61591;DHT22;57639;52.410;-1.966;2022-10-16T03:53:04;17.10;59.20
61591;DHT22;57639;52.410;-1.966;2022-10-16T03:56:11;17.10;59.10
61591;DHT22;57639;52.410;-1.966;2022-10-16T03:59:18;17.10;59.20
61591;DHT22;57639;52.410;-1.966;2022-10-16T04:02:26;17.10;59.20
61591;DHT22;57639;52.410;-1.966;2022-10-16T04:05:36;17.10;59.20
61591;DHT22;57639;52.410;-1.966;2022-10-16T04:08:44;17.10;59.10
61591;DHT22;57639;52.410;-1.966;2022-10-16T04:11:51;17.10;58.90
61591;DHT22;57639;52.410;-1.966;2022-10-16T04:14:59;17.00;59.00
61591;DHT22;57639;52.410;-1.966;2022-10-16T04:18:07;17.10;59.20
61591;DHT22;57639;52.410;-1.966;2022-10-16T04:21:17;17.10;59.10
61591;DHT22;57639;52.410;-1.966;2022-10-16T04:24:24;17.00;59.10
61591;DHT22;57639;52.410;-1.966;2022-10-16T04:27:32;17.00;59.10
61591;DHT22;57639;52.410;-1.966;2022-10-16T04:30:40;17.00;59.30
61591;DHT22;57639;52.410;-1.966;2022-10-16T04:33:47;17.00;59.10
61591;DHT22;57639;52.410;-1.966;2022-10-16T04:36:57;16.90;59.20
61591;DHT22;57639;52.410;-1.966;2022-10-16T04:40:05;17.00;59.20
61591;DHT22;57639;52.410;-1.966;2022-10-16T04:43:13;17.00;59.30
61591;DHT22;57639;52.410;-1.966;2022-10-16T04:46:21;16.90;59.50
61591;DHT22;57639;52.410;-1.966;2022-10-16T04:49:29;17.00;59.40
61591;DHT22;57639;52.410;-1.966;2022-10-16T04:52:39;16.90;59.50
61591;DHT22;57639;52.410;-1.966;2022-10-16T04:55:46;16.90;59.50
61591;DHT22;57639;52.410;-1.966;2022-10-16T04:58:54;17.00;59.40
61591;DHT22;57639;52.410;-1.966;2022-10-16T05:02:01;17.00;59.40
61591;DHT22;57639;52.410;-1.966;2022-10-16T05:05:08;17.00;59.50
61591;DHT22;57639;52.410;-1.966;2022-10-16T05:08:19;17.00;59.50
61591;DHT22;57639;52.410;-1.966;2022-10-16T05:11:24;17.00;59.50
61591;DHT22;57639;52.410;-1.966;2022-10-16T05:14:31;17.00;59.50
61591;DHT22;57639;52.410;-1.966;2022-10-16T05:17:39;17.00;59.50
61591;DHT22;57639;52.410;-1.966;2022-10-16T05:20:47;16.90;59.50
61591;DHT22;57639;52.410;-1.966;2022-10-16T05:23:57;16.90;59.50
61591;DHT22;57639;52.410;-1.966;2022-10-16T05:27:05;16.90;59.60
61591;DHT22;57639;52.410;-1.966;2022-10-16T05:30:12;16.90;59.60
61591;DHT22;57639;52.410;-1.966;2022-10-16T05:33:20;16.90;59.60
61591;DHT22;57639;52.410;-1.966;2022-10-16T05:36:27;16.90;59.60
61591;DHT22;57639;52.410;-1.966;2022-10-16T05:39:38;16.90;59.60
61591;DHT22;57639;52.410;-1.966;2022-10-16T05:42:45;16.90;59.60
61591;DHT22;57639;52.410;-1.966;2022-10-16T05:45:57;16.90;59.50
61591;DHT22;57639;52.410;-1.966;2022-10-16T05:49:04;16.90;59.50
61591;DHT22;57639;52.410;-1.966;2022-10-16T05:52:12;16.90;59.50
61591;DHT22;57639;52.410;-1.966;2022-10-16T05:55:22;16.90;59.50
61591;DHT22;57639;52.410;-1.966;2022-10-16T05:58:32;16.80;59.50
61591;DHT22;57639;52.410;-1.966;2022-10-16T06:01:40;16.80;59.40
61591;DHT22;57639;52.410;-1.966;2022-10-16T06:04:47;16.90;59.50
61591;DHT22;57639;52.410;-1.966;2022-10-16T06:07:54;16.80;59.50
61591;DHT22;57639;52.410;-1.966;2022-10-16T06:11:06;16.80;59.50
61591;DHT22;57639;52.410;-1.966;2022-10-16T06:14:13;16.80;59.50
61591;DHT22;57639;52.410;-1.966;2022-10-16T06:17:21;16.80;59.40
61591;DHT22;57639;52.410;-1.966;2022-10-16T06:20:29;16.80;59.40
61591;DHT22;57639;52.410;-1.966;2022-10-16T06:23:36;16.80;59.40
61591;DHT22;57639;52.410;-1.966;2022-10-16T06:26:46;16.80;59.40
61591;DHT22;57639;52.410;-1.966;2022-10-16T06:29:53;16.80;59.40
61591;DHT22;57639;52.410;-1.966;2022-10-16T06:33:01;16.80;59.40
61591;DHT22;57639;52.410;-1.966;2022-10-16T06:36:10;16.70;59.50
61591;DHT22;57639;52.410;-1.966;2022-10-16T06:39:18;16.70;59.50
61591;DHT22;57639;52.410;-1.966;2022-10-16T06:42:28;16.70;59.50
61591;DHT22;57639;52.410;-1.966;2022-10-16T06:45:36;16.70;59.50
61591;DHT22;57639;52.410;-1.966;2022-10-16T06:48:44;16.70;59.50
61591;DHT22;57639;52.410;-1.966;2022-10-16T06:51:51;16.70;59.50
61591;DHT22;57639;52.410;-1.966;2022-10-16T06:54:58;16.70;59.50
61591;DHT22;57639;52.410;-1.966;2022-10-16T06:58:09;16.70;59.50
61591;DHT22;57639;52.410;-1.966;2022-10-16T07:01:21;16.70;59.50
61591;DHT22;57639;52.410;-1.966;2022-10-16T07:04:28;16.70;59.40
61591;DHT22;57639;52.410;-1.966;2022-10-16T07:07:35;16.70;59.50
61591;DHT22;57639;52.410;-1.966;2022-10-16T07:10:43;16.70;59.50
61591;DHT22;57639;52.410;-1.966;2022-10-16T07:13:53;16.70;59.50
61591;DHT22;57639;52.410;-1.966;2022-10-16T07:17:01;16.70;59.50
61591;DHT22;57639;52.410;-1.966;2022-10-16T07:20:09;16.80;59.50
61591;DHT22;57639;52.410;-1.966;2022-10-16T07:23:17;16.70;59.50
61591;DHT22;57639;52.410;-1.966;2022-10-16T07:26:26;16.70;59.40
61591;DHT22;57639;52.410;-1.966;2022-10-16T07:29:36;16.80;59.20
61591;DHT22;57639;52.410;-1.966;2022-10-16T07:32:44;16.80;59.30
61591;DHT22;57639;52.410;-1.966;2022-10-16T07:35:55;16.80;59.30
61591;DHT22;57639;52.410;-1.966;2022-10-16T07:39:18;16.80;59.30
61591;DHT22;57639;52.410;-1.966;2022-10-16T07:42:26;16.80;59.20
61591;DHT22;57639;52.410;-1.966;2022-10-16T07:45:37;16.80;59.10
61591;DHT22;57639;52.410;-1.966;2022-10-16T07:48:45;16.80;59.00
61591;DHT22;57639;52.410;-1.966;2022-10-16T07:51:53;16.80;58.90
61591;DHT22;57639;52.410;-1.966;2022-10-16T07:55:00;16.80;58.80
61591;DHT22;57639;52.410;-1.966;2022-10-16T07:58:09;16.80;58.80
61591;DHT22;57639;52.410;-1.966;2022-10-16T08:01:19;16.80;58.60
61591;DHT22;57639;52.410;-1.966;2022-10-16T08:04:27;16.80;58.60
61591;DHT22;57639;52.410;-1.966;2022-10-16T08:07:34;16.80;58.50
61591;DHT22;57639;52.410;-1.966;2022-10-16T08:10:41;16.80;58.40
61591;DHT22;57639;52.410;-1.966;2022-10-16T08:13:49;16.80;58.30
61591;DHT22;57639;52.410;-1.966;2022-10-16T08:16:59;16.80;58.20
61591;DHT22;57639;52.410;-1.966;2022-10-16T08:20:09;16.80;58.20
61591;DHT22;57639;52.410;-1.966;2022-10-16T08:23:17;16.80;58.20
61591;DHT22;57639;52.410;-1.966;2022-10-16T08:26:25;16.80;58.10
61591;DHT22;57639;52.410;-1.966;2022-10-16T08:29:33;16.80;58.00
61591;DHT22;57639;52.410;-1.966;2022-10-16T08:32:43;16.90;58.00
61591;DHT22;57639;52.410;-1.966;2022-10-16T08:35:51;16.90;58.00
61591;DHT22;57639;52.410;-1.966;2022-10-16T08:38:58;16.80;58.00
61591;DHT22;57639;52.410;-1.966;2022-10-16T08:42:11;16.80;58.00
61591;DHT22;57639;52.410;-1.966;2022-10-16T08:45:31;16.80;58.10
61591;DHT22;57639;52.410;-1.966;2022-10-16T08:48:45;16.90;58.00
61591;DHT22;57639;52.410;-1.966;2022-10-16T08:51:55;16.90;58.00
61591;DHT22;57639;52.410;-1.966;2022-10-16T08:55:04;16.90;58.00
61591;DHT22;57639;52.410;-1.966;2022-10-16T08:58:14;16.90;58.00
61591;DHT22;57639;52.410;-1.966;2022-10-16T09:01:23;16.90;58.00
61591;DHT22;57639;52.410;-1.966;2022-10-16T09:08:26;17.00;58.00
61591;DHT22;57639;52.410;-1.966;2022-10-16T09:11:43;16.90;58.00
61591;DHT22;57639;52.410;-1.966;2022-10-16T09:15:02;16.90;58.00
61591;DHT22;57639;52.410;-1.966;2022-10-16T09:18:16;17.00;58.10
61591;DHT22;57639;52.410;-1.966;2022-10-16T09:21:30;17.00;58.00
61591;DHT22;57639;52.410;-1.966;2022-10-16T09:24:37;17.00;58.00
61591;DHT22;57639;52.410;-1.966;2022-10-16T09:27:47;17.00;58.10
61591;DHT22;57639;52.410;-1.966;2022-10-16T09:30:55;17.10;58.10
61591;DHT22;57639;52.410;-1.966;2022-10-16T09:34:04;17.10;58.00
61591;DHT22;57639;52.410;-1.966;2022-10-16T09:37:18;17.10;58.00
61591;DHT22;57639;52.410;-1.966;2022-10-16T09:40:30;17.10;58.00
61591;DHT22;57639;52.410;-1.966;2022-10-16T09:43:40;17.10;58.00
61591;DHT22;57639;52.410;-1.966;2022-10-16T09:46:49;17.10;57.90
61591;DHT22;57639;52.410;-1.966;2022-10-16T09:49:58;17.10;57.90
61591;DHT22;57639;52.410;-1.966;2022-10-16T09:53:14;17.10;57.90
61591;DHT22;57639;52.410;-1.966;2022-10-16T09:56:28;17.10;57.80
61591;DHT22;57639;52.410;-1.966;2022-10-16T09:59:46;17.10;57.80
61591;DHT22;57639;52.410;-1.966;2022-10-16T10:02:54;17.10;57.90
61591;DHT22;57639;52.410;-1.966;2022-10-16T10:06:15;17.10;57.80
61591;DHT22;57639;52.410;-1.966;2022-10-16T10:09:27;17.10;57.80
61591;DHT22;57639;52.410;-1.966;2022-10-16T10:12:45;17.10;57.80
61591;DHT22;57639;52.410;-1.966;2022-10-16T10:15:54;17.20;57.80
61591;DHT22;57639;52.410;-1.966;2022-10-16T10:19:02;17.10;57.90
61591;DHT22;57639;52.410;-1.966;2022-10-16T10:22:23;17.10;57.80
61591;DHT22;57639;52.410;-1.966;2022-10-16T10:25:39;17.10;57.90
61591;DHT22;57639;52.410;-1.966;2022-10-16T10:28:55;17.10;57.90
61591;DHT22;57639;52.410;-1.966;2022-10-16T10:32:14;17.10;57.90
61591;DHT22;57639;52.410;-1.966;2022-10-16T10:35:32;17.20;57.90
61591;DHT22;57639;52.410;-1.966;2022-10-16T10:38:47;17.20;57.90
61591;DHT22;57639;52.410;-1.966;2022-10-16T10:42:14;17.10;57.90
61591;DHT22;57639;52.410;-1.966;2022-10-16T10:45:27;17.10;57.90
61591;DHT22;57639;52.410;-1.966;2022-10-16T10:48:51;17.20;57.90
61591;DHT22;57639;52.410;-1.966;2022-10-16T10:52:12;17.20;57.90
61591;DHT22;57639;52.410;-1.966;2022-10-16T10:55:25;17.20;57.90
61591;DHT22;57639;52.410;-1.966;2022-10-16T10:58:57;17.10;57.90
61591;DHT22;57639;52.410;-1.966;2022-10-16T11:02:15;17.20;57.90
61591;DHT22;57639;52.410;-1.966;2022-10-16T11:05:34;17.20;57.90
61591;DHT22;57639;52.410;-1.966;2022-10-16T11:08:48;17.20;57.90
61591;DHT22;57639;52.410;-1.966;2022-10-16T11:12:07;17.20;57.90
61591;DHT22;57639;52.410;-1.966;2022-10-16T11:15:25;17.10;57.90
61591;DHT22;57639;52.410;-1.966;2022-10-16T11:18:44;17.20;57.90
61591;DHT22;57639;52.410;-1.966;2022-10-16T11:21:56;17.20;57.90
61591;DHT22;57639;52.410;-1.966;2022-10-16T11:25:13;17.20;57.90
61591;DHT22;57639;52.410;-1.966;2022-10-16T11:28:27;17.20;57.90
61591;DHT22;57639;52.410;-1.966;2022-10-16T11:31:40;17.20;57.90
61591;DHT22;57639;52.410;-1.966;2022-10-16T11:34:51;17.20;57.90
61591;DHT22;57639;52.410;-1.966;2022-10-16T11:38:02;17.20;58.00
61591;DHT22;57639;52.410;-1.966;2022-10-16T11:41:22;17.20;57.90
61591;DHT22;57639;52.410;-1.966;2022-10-16T11:44:44;17.20;57.90
61591;DHT22;57639;52.410;-1.966;2022-10-16T11:48:03;17.30;57.90
61591;DHT22;57639;52.410;-1.966;2022-10-16T11:51:18;17.20;57.90
61591;DHT22;57639;52.410;-1.966;2022-10-16T11:54:35;17.20;57.90
61591;DHT22;57639;52.410;-1.966;2022-10-16T11:57:46;17.20;57.90
61591;DHT22;57639;52.410;-1.966;2022-10-16T12:01:01;17.20;57.90
61591;DHT22;57639;52.410;-1.966;2022-10-16T12:04:22;17.30;57.90
61591;DHT22;57639;52.410;-1.966;2022-10-16T12:07:35;17.30;57.90
61591;DHT22;57639;52.410;-1.966;2022-10-16T12:10:46;17.30;57.80
61591;DHT22;57639;52.410;-1.966;2022-10-16T12:14:16;17.30;57.80
61591;DHT22;57639;52.410;-1.966;2022-10-16T12:17:27;17.30;57.80
61591;DHT22;57639;52.410;-1.966;2022-10-16T12:20:54;17.30;57.80
61591;DHT22;57639;52.410;-1.966;2022-10-16T12:24:24;17.30;57.80
61591;DHT22;57639;52.410;-1.966;2022-10-16T12:27:35;17.30;57.80
61591;DHT22;57639;52.410;-1.966;2022-10-16T12:30:43;17.30;57.70
61591;DHT22;57639;52.410;-1.966;2022-10-16T12:34:01;17.30;57.80
61591;DHT22;57639;52.410;-1.966;2022-10-16T12:37:14;17.30;57.80
61591;DHT22;57639;52.410;-1.966;2022-10-16T12:40:31;17.30;57.80
61591;DHT22;57639;52.410;-1.966;2022-10-16T12:43:41;17.30;57.80
61591;DHT22;57639;52.410;-1.966;2022-10-16T12:46:49;17.30;57.80
61591;DHT22;57639;52.410;-1.966;2022-10-16T12:49:57;17.30;57.80
61591;DHT22;57639;52.410;-1.966;2022-10-16T12:53:23;17.30;57.80
61591;DHT22;57639;52.410;-1.966;2022-10-16T12:56:41;17.30;57.80
61591;DHT22;57639;52.410;-1.966;2022-10-16T12:59:51;17.30;57.80
61591;DHT22;57639;52.410;-1.966;2022-10-16T13:03:28;17.30;57.80
61591;DHT22;57639;52.410;-1.966;2022-10-16T13:06:47;17.30;57.80
61591;DHT22;57639;52.410;-1.966;2022-10-16T13:10:06;17.30;57.90
61591;DHT22;57639;52.410;-1.966;2022-10-16T13:13:34;17.30;57.80
61591;DHT22;57639;52.410;-1.966;2022-10-16T13:16:51;17.30;57.90
61591;DHT22;57639;52.410;-1.966;2022-10-16T13:20:14;17.30;57.80
61591;DHT22;57639;52.410;-1.966;2022-10-16T13:23:29;17.30;57.80
61591;DHT22;57639;52.410;-1.966;2022-10-16T13:26:46;17.30;57.90
61591;DHT22;57639;52.410;-1.966;2022-10-16T13:30:01;17.30;57.80
61591;DHT22;57639;52.410;-1.966;2022-10-16T13:33:14;17.30;57.80
61591;DHT22;57639;52.410;-1.966;2022-10-16T13:36:24;17.30;57.70
61591;DHT22;57639;52.410;-1.966;2022-10-16T13:39:31;17.40;57.70
61591;DHT22;57639;52.410;-1.966;2022-10-16T13:42:41;17.40;57.70
61591;DHT22;57639;52.410;-1.966;2022-10-16T13:45:54;17.30;57.80
61591;DHT22;57639;52.410;-1.966;2022-10-16T13:49:03;17.30;57.70
61591;DHT22;57639;52.410;-1.966;2022-10-16T13:52:20;17.30;57.80
61591;DHT22;57639;52.410;-1.966;2022-10-16T13:55:28;17.40;57.70
61591;DHT22;57639;52.410;-1.966;2022-10-16T13:58:40;17.40;57.80
61591;DHT22;57639;52.410;-1.966;2022-10-16T14:01:48;17.40;57.80
61591;DHT22;57639;52.410;-1.966;2022-10-16T14:05:02;17.40;57.80
61591;DHT22;57639;52.410;-1.966;2022-10-16T14:08:26;17.40;57.80
61591;DHT22;57639;52.410;-1.966;2022-10-16T14:11:45;17.40;57.80
61591;DHT22;57639;52.410;-1.966;2022-10-16T14:15:05;17.40;57.80
61591;DHT22;57639;52.410;-1.966;2022-10-16T14:18:19;17.40;57.80
61591;DHT22;57639;52.410;-1.966;2022-10-16T14:21:27;17.40;57.80
61591;DHT22;57639;52.410;-1.966;2022-10-16T14:24:36;17.40;57.70
61591;DHT22;57639;52.410;-1.966;2022-10-16T14:27:43;17.40;57.70
61591;DHT22;57639;52.410;-1.966;2022-10-16T14:30:56;17.40;57.80
61591;DHT22;57639;52.410;-1.966;2022-10-16T14:34:03;17.40;57.70
61591;DHT22;57639;52.410;-1.966;2022-10-16T14:37:20;17.40;57.70
61591;DHT22;57639;52.410;-1.966;2022-10-16T14:40:31;17.40;57.80
61591;DHT22;57639;52.410;-1.966;2022-10-16T14:43:41;17.40;57.80
61591;DHT22;57639;52.410;-1.966;2022-10-16T14:46:58;17.40;57.90
61591;DHT22;57639;52.410;-1.966;2022-10-16T14:50:08;17.40;57.90
61591;DHT22;57639;52.410;-1.966;2022-10-16T14:53:22;17.40;57.80
61591;DHT22;57639;52.410;-1.966;2022-10-16T14:56:45;17.40;57.90
61591;DHT22;57639;52.410;-1.966;2022-10-16T14:59:54;17.40;57.90
61591;DHT22;57639;52.410;-1.966;2022-10-16T15:03:08;17.40;57.90
61591;DHT22;57639;52.410;-1.966;2022-10-16T15:06:17;17.40;57.90
61591;DHT22;57639;52.410;-1.966;2022-10-16T15:09:30;17.40;57.90
61591;DHT22;57639;52.410;-1.966;2022-10-16T15:12:54;17.40;57.90
61591;DHT22;57639;52.410;-1.966;2022-10-16T15:16:09;17.40;57.90
61591;DHT22;57639;52.410;-1.966;2022-10-16T15:19:27;17.40;57.90
61591;DHT22;57639;52.410;-1.966;2022-10-16T15:23:09;17.40;57.80
61591;DHT22;57639;52.410;-1.966;2022-10-16T15:26:29;17.40;57.80
61591;DHT22;57639;52.410;-1.966;2022-10-16T15:29:41;17.40;57.70
61591;DHT22;57639;52.410;-1.966;2022-10-16T15:32:59;17.40;57.70
61591;DHT22;57639;52.410;-1.966;2022-10-16T15:36:15;17.40;57.80
61591;DHT22;57639;52.410;-1.966;2022-10-16T15:39:26;17.50;57.80
61591;DHT22;57639;52.410;-1.966;2022-10-16T15:42:37;17.40;57.80
61591;DHT22;57639;52.410;-1.966;2022-10-16T15:45:57;17.40;57.70
61591;DHT22;57639;52.410;-1.966;2022-10-16T15:49:09;17.50;57.80
61591;DHT22;57639;52.410;-1.966;2022-10-16T15:52:30;17.40;57.80
61591;DHT22;57639;52.410;-1.966;2022-10-16T15:55:45;17.40;57.90
61591;DHT22;57639;52.410;-1.966;2022-10-16T15:59:00;17.40;57.80
61591;DHT22;57639;52.410;-1.966;2022-10-16T16:02:11;17.40;57.70
61591;DHT22;57639;52.410;-1.966;2022-10-16T16:05:39;17.40;57.80
61591;DHT22;57639;52.410;-1.966;2022-10-16T16:08:54;17.40;57.70
61591;DHT22;57639;52.410;-1.966;2022-10-16T16:12:09;17.40;57.70
61591;DHT22;57639;52.410;-1.966;2022-10-16T16:15:16;17.40;57.60
61591;DHT22;57639;52.410;-1.966;2022-10-16T16:18:22;17.40;57.60
61591;DHT22;57639;52.410;-1.966;2022-10-16T16:21:30;17.40;57.60
61591;DHT22;57639;52.410;-1.966;2022-10-16T16:24:45;17.40;57.50
61591;DHT22;57639;52.410;-1.966;2022-10-16T16:27:52;17.40;57.60
61591;DHT22;57639;52.410;-1.966;2022-10-16T16:31:00;17.40;57.50
61591;DHT22;57639;52.410;-1.966;2022-10-16T16:34:07;17.40;57.60
61591;DHT22;57639;52.410;-1.966;2022-10-16T16:37:14;17.30;57.60
61591;DHT22;57639;52.410;-1.966;2022-10-16T16:40:25;17.40;57.60
61591;DHT22;57639;52.410;-1.966;2022-10-16T16:43:33;17.30;57.70
61591;DHT22;57639;52.410;-1.966;2022-10-16T16:46:42;17.40;57.90
61591;DHT22;57639;52.410;-1.966;2022-10-16T16:49:50;17.40;57.80
61591;DHT22;57639;52.410;-1.966;2022-10-16T16:52:58;17.40;57.80
61591;DHT22;57639;52.410;-1.966;2022-10-16T16:56:08;17.40;57.90
61591;DHT22;57639;52.410;-1.966;2022-10-16T16:59:17;17.40;58.10
61591;DHT22;57639;52.410;-1.966;2022-10-16T17:02:25;17.50;58.00
61591;DHT22;57639;52.410;-1.966;2022-10-16T17:05:33;17.50;58.00
61591;DHT22;57639;52.410;-1.966;2022-10-16T17:08:40;17.50;58.30
61591;DHT22;57639;52.410;-1.966;2022-10-16T17:11:50;17.50;58.10
61591;DHT22;57639;52.410;-1.966;2022-10-16T17:14:58;17.60;58.20
61591;DHT22;57639;52.410;-1.966;2022-10-16T17:18:05;17.60;58.20
61591;DHT22;57639;52.410;-1.966;2022-10-16T17:21:12;17.50;58.50
61591;DHT22;57639;52.410;-1.966;2022-10-16T17:24:20;17.60;58.30
61591;DHT22;57639;52.410;-1.966;2022-10-16T17:27:30;17.70;58.40
61591;DHT22;57639;52.410;-1.966;2022-10-16T17:30:40;17.70;58.60
61591;DHT22;57639;52.410;-1.966;2022-10-16T17:33:47;17.80;58.50
61591;DHT22;57639;52.410;-1.966;2022-10-16T17:36:55;17.90;58.60
61591;DHT22;57639;52.410;-1.966;2022-10-16T17:40:02;18.00;59.40
61591;DHT22;57639;52.410;-1.966;2022-10-16T17:43:13;18.10;59.30
61591;DHT22;57639;52.410;-1.966;2022-10-16T17:46:21;18.10;59.10
61591;DHT22;57639;52.410;-1.966;2022-10-16T17:49:29;18.20;58.90
61591;DHT22;57639;52.410;-1.966;2022-10-16T17:52:37;18.30;58.70
61591;DHT22;57639;52.410;-1.966;2022-10-16T17:55:45;18.30;58.90
61591;DHT22;57639;52.410;-1.966;2022-10-16T17:58:57;18.40;58.90
61591;DHT22;57639;52.410;-1.966;2022-10-16T18:02:08;18.40;59.00
61591;DHT22;57639;52.410;-1.966;2022-10-16T18:05:17;18.50;59.00
61591;DHT22;57639;52.410;-1.966;2022-10-16T18:08:24;18.50;59.20
61591;DHT22;57639;52.410;-1.966;2022-10-16T18:11:32;18.60;59.10
61591;DHT22;57639;52.410;-1.966;2022-10-16T18:14:43;18.60;59.30
61591;DHT22;57639;52.410;-1.966;2022-10-16T18:17:51;18.60;59.10
61591;DHT22;57639;52.410;-1.966;2022-10-16T18:21:01;18.60;59.00
61591;DHT22;57639;52.410;-1.966;2022-10-16T18:24:10;18.60;59.20
61591;DHT22;57639;52.410;-1.966;2022-10-16T18:27:20;18.60;59.30
61591;DHT22;57639;52.410;-1.966;2022-10-16T18:30:32;18.60;59.40
61591;DHT22;57639;52.410;-1.966;2022-10-16T18:33:43;18.70;59.30
61591;DHT22;57639;52.410;-1.966;2022-10-16T18:36:57;18.60;59.60
61591;DHT22;57639;52.410;-1.966;2022-10-16T18:40:09;18.60;59.60
61591;DHT22;57639;52.410;-1.966;2022-10-16T18:43:22;18.60;59.70
61591;DHT22;57639;52.410;-1.966;2022-10-16T18:46:43;18.60;59.70
61591;DHT22;57639;52.410;-1.966;2022-10-16T18:49:58;18.60;59.70
61591;DHT22;57639;52.410;-1.966;2022-10-16T18:53:19;18.60;59.80
61591;DHT22;57639;52.410;-1.966;2022-10-16T18:56:39;18.60;59.60
61591;DHT22;57639;52.410;-1.966;2022-10-16T18:59:54;18.60;59.70
61591;DHT22;57639;52.410;-1.966;2022-10-16T19:03:11;18.60;59.80
61591;DHT22;57639;52.410;-1.966;2022-10-16T19:06:28;18.60;59.90
61591;DHT22;57639;52.410;-1.966;2022-10-16T19:09:44;18.60;59.80
61591;DHT22;57639;52.410;-1.966;2022-10-16T19:13:02;18.70;59.80
61591;DHT22;57639;52.410;-1.966;2022-10-16T19:16:19;18.70;59.80
61591;DHT22;57639;52.410;-1.966;2022-10-16T19:19:33;18.70;59.90
61591;DHT22;57639;52.410;-1.966;2022-10-16T19:22:41;18.70;59.70
61591;DHT22;57639;52.410;-1.966;2022-10-16T19:26:01;18.80;59.80
61591;DHT22;57639;52.410;-1.966;2022-10-16T19:29:09;18.80;59.70
61591;DHT22;57639;52.410;-1.966;2022-10-16T19:32:17;18.70;59.70
61591;DHT22;57639;52.410;-1.966;2022-10-16T19:35:28;18.70;60.00
61591;DHT22;57639;52.410;-1.966;2022-10-16T19:38:37;18.70;60.00
61591;DHT22;57639;52.410;-1.966;2022-10-16T19:41:47;18.70;60.00
61591;DHT22;57639;52.410;-1.966;2022-10-16T19:44:54;18.70;60.00
61591;DHT22;57639;52.410;-1.966;2022-10-16T19:48:02;18.80;60.10
61591;DHT22;57639;52.410;-1.966;2022-10-16T19:51:19;18.70;60.20
61591;DHT22;57639;52.410;-1.966;2022-10-16T19:54:32;18.80;60.30